Time;durP1;ratioP1;P1;durP2;ratioP2;P2;SDS_P1;SDS_P2;PMS_P1;PMS_P2;Temp;Humidity;BMP_temperature;BMP_pressure;BME280_temperature;BME280_humidity;BME280_pressure;Samples;Min_cycle;Max_cycle;Signal;HPM_P1;HPM_P2
2023/10/25 00:01:17;;;;;;;2.05;1.15;;;;;;;14.90;71.37;100139.13;5065117;28;20039;-55
2023/10/25 00:03:43;;;;;;;0.98;0.98;;;;;;;14.90;71.41;100142.63;5064138;28;20032;-55
2023/10/25 00:06:08;;;;;;;1.50;1.02;;;;;;;14.90;71.10;100133.75;5063363;28;20111;-55
2023/10/25 00:08:33;;;;;;;2.92;1.20;;;;;;;14.90;70.90;100136.44;5066451;28;20032;-55
2023/10/25 00:11:07;;;;;;;1.10;1.00;;;;;;;14.90;71.31;100142.63;5064695;28;20098;-55
2023/10/25 00:13:34;;;;;;;1.40;0.95;;;;;;;14.90;71.55;100139.94;5065093;28;20043;-55
2023/10/25 00:15:59;;;;;;;1.33;1.05;;;;;;;14.89;71.23;100135.59;5063267;28;20037;-55
2023/10/25 00:18:26;;;;;;;2.42;0.90;;;;;;;14.89;71.51;100124.88;5063894;28;20025;-55
2023/10/25 00:20:52;;;;;;;1.17;0.98;;;;;;;14.90;71.29;100117.66;5065843;28;20036;-55
2023/10/25 00:23:19;;;;;;;1.67;0.82;;;;;;;14.89;71.40;100115.97;5065220;28;20047;-55
2023/10/25 00:25:45;;;;;;;1.20;1.10;;;;;;;14.89;71.30;100126.69;5065097;28;20044;-55
2023/10/25 00:28:11;;;;;;;3.92;1.10;;;;;;;14.89;71.39;100129.38;5065115;28;20043;-55
2023/10/25 00:30:37;;;;;;;1.35;0.90;;;;;;;14.89;71.34;100113.28;5064812;28;20093;-54
2023/10/25 00:33:02;;;;;;;2.13;0.98;;;;;;;14.88;71.33;100120.50;5064090;28;20418;-55
2023/10/25 00:35:27;;;;;;;0.98;0.98;;;;;;;14.89;71.15;100122.19;5064241;28;20386;-55
2023/10/25 00:37:53;;;;;;;1.77;0.98;;;;;;;14.89;71.38;100132.03;5063754;28;20109;-55
2023/10/25 00:40:18;;;;;;;2.20;0.90;;;;;;;14.89;71.40;100132.03;5064861;28;20033;-55
2023/10/25 00:42:43;;;;;;;1.70;1.10;;;;;;;14.88;71.20;100131.22;5065377;28;20539;-55
2023/10/25 00:45:09;;;;;;;1.65;0.90;;;;;;;14.88;71.07;100125.00;5065090;28;20068;-55
2023/10/25 00:47:34;;;;;;;1.17;0.95;;;;;;;14.87;71.34;100129.53;5065299;28;20482;-55
2023/10/25 00:50:00;;;;;;;2.30;1.38;;;;;;;14.86;71.27;100128.66;5064522;28;20433;-55
2023/10/25 00:52:26;;;;;;;1.80;1.70;;;;;;;14.87;71.17;100132.22;5064459;28;20478;-55
2023/10/25 00:54:52;;;;;;;1.10;0.90;;;;;;;14.86;71.36;100127.84;5060646;28;20399;-55
2023/10/25 00:57:18;;;;;;;1.23;1.08;;;;;;;14.86;71.47;100133.19;5065114;28;20037;-54
2023/10/25 00:59:43;;;;;;;1.52;1.05;;;;;;;14.86;71.23;100119.78;5064826;28;20032;-55
2023/10/25 01:02:11;;;;;;;1.23;1.13;;;;;;;14.85;71.19;100115.44;5063455;28;20434;-55
2023/10/25 01:04:36;;;;;;;2.33;1.00;;;;;;;14.85;71.02;100118.13;5062703;28;20029;-55
2023/10/25 01:07:01;;;;;;;2.58;1.20;;;;;;;14.85;71.27;100118.94;5064190;28;20052;-55
2023/10/25 01:09:28;;;;;;;1.08;1.00;;;;;;;14.85;71.13;100118.13;5064053;28;20119;-55
2023/10/25 01:11:54;;;;;;;2.22;1.13;;;;;;;14.84;70.97;100105.69;5063991;28;20024;-55
2023/10/25 01:14:19;;;;;;;0.98;0.98;;;;;;;14.85;71.21;100104.72;5063873;28;20040;-55
2023/10/25 01:16:44;;;;;;;1.85;1.10;;;;;;;14.83;71.07;100112.91;5063983;28;20041;-55
2023/10/25 01:19:10;;;;;;;1.35;0.98;;;;;;;14.83;71.45;100102.16;5060373;28;20116;-55
2023/10/25 01:21:35;;;;;;;1.30;1.15;;;;;;;14.84;71.50;100103.00;5067212;28;20035;-54
2023/10/25 01:24:00;;;;;;;1.45;1.02;;;;;;;14.84;71.04;100105.69;5062731;28;20039;-55
2023/10/25 01:26:26;;;;;;;1.08;0.77;;;;;;;14.83;71.13;100098.63;5063574;28;20040;-55
2023/10/25 01:28:51;;;;;;;2.78;1.00;;;;;;;14.83;71.11;100088.78;5061924;28;20494;-55
2023/10/25 01:31:16;;;;;;;1.20;1.10;;;;;;;14.82;71.05;100092.44;5062969;28;20394;-55
2023/10/25 01:33:43;;;;;;;2.08;1.05;;;;;;;14.82;71.04;100088.91;5061543;28;20045;-55
2023/10/25 01:36:08;;;;;;;1.15;0.88;;;;;;;14.82;71.42;100076.34;5064536;28;20055;-55
2023/10/25 01:38:34;;;;;;;1.77;1.00;;;;;;;14.82;71.25;100075.50;5063132;28;20037;-55
2023/10/25 01:40:59;;;;;;;1.35;1.10;;;;;;;14.81;71.31;100077.34;5068268;28;20043;-55
2023/10/25 01:43:24;;;;;;;1.52;1.10;;;;;;;14.81;71.45;100066.63;5063321;28;20029;-55
2023/10/25 01:45:50;;;;;;;1.08;0.90;;;;;;;14.81;71.13;100063.97;5063414;28;20478;-55
2023/10/25 01:48:15;;;;;;;1.38;0.90;;;;;;;14.81;71.15;100068.44;5063273;28;20040;-55
2023/10/25 01:50:40;;;;;;;1.15;0.82;;;;;;;14.81;70.98;100068.44;5062433;28;20108;-55
2023/10/25 01:53:06;;;;;;;1.10;0.90;;;;;;;14.81;71.01;100061.28;5065310;28;20064;-55
2023/10/25 01:55:31;;;;;;;0.93;0.85;;;;;;;14.80;71.10;100054.22;5063234;28;20051;-55
2023/10/25 01:57:56;;;;;;;1.60;1.10;;;;;;;14.80;71.12;100048.00;5065901;28;20040;-55
2023/10/25 02:00:22;;;;;;;1.55;1.00;;;;;;;14.80;71.26;100038.13;5066276;28;20036;-55
2023/10/25 02:02:47;;;;;;;2.42;0.90;;;;;;;14.81;71.12;100050.56;5065487;28;20036;-55
2023/10/25 02:05:12;;;;;;;1.25;1.00;;;;;;;14.80;71.12;100048.84;5062972;28;20029;-55
2023/10/25 02:07:39;;;;;;;2.20;1.10;;;;;;;14.79;71.35;100041.81;5063321;28;20032;-55
2023/10/25 02:10:04;;;;;;;1.02;0.75;;;;;;;14.79;71.17;100041.81;5063131;28;20494;-55
2023/10/25 02:12:30;;;;;;;1.83;1.15;;;;;;;14.79;71.03;100041.81;5062844;28;20043;-55
2023/10/25 02:14:55;;;;;;;1.55;1.13;;;;;;;14.79;71.22;100031.09;5062962;28;20036;-55
2023/10/25 02:17:21;;;;;;;1.75;0.90;;;;;;;14.80;70.91;100032.78;5062901;28;20032;-55
2023/10/25 02:19:47;;;;;;;0.90;0.90;;;;;;;14.79;71.20;100036.47;5062766;28;20123;-55
2023/10/25 02:22:12;;;;;;;1.33;1.00;;;;;;;14.79;71.19;100030.22;5063937;28;20127;-55
2023/10/25 02:24:37;;;;;;;2.03;1.10;;;;;;;14.79;71.14;100024.88;5065071;28;20402;-55
2023/10/25 02:27:03;;;;;;;1.17;1.08;;;;;;;14.78;70.81;100034.75;5062161;28;20028;-55
2023/10/25 02:29:28;;;;;;;1.02;0.90;;;;;;;14.79;70.99;100027.56;5062085;28;20036;-55
2023/10/25 02:31:54;;;;;;;1.33;0.98;;;;;;;14.78;71.07;100017.84;5063005;28;20040;-55
2023/10/25 02:34:19;;;;;;;1.65;1.00;;;;;;;14.78;71.12;100018.66;5065607;28;20397;-55
2023/10/25 02:36:44;;;;;;;0.93;0.82;;;;;;;14.78;71.20;100017.84;5062482;28;20041;-55
2023/10/25 02:39:10;;;;;;;1.23;1.05;;;;;;;14.78;71.02;100013.31;5063323;28;20057;-55
2023/10/25 02:41:36;;;;;;;0.93;0.82;;;;;;;14.78;71.01;100010.63;5062731;28;20079;-56
2023/10/25 02:44:02;;;;;;;3.20;1.00;;;;;;;14.77;71.00;100011.59;5059308;28;20387;-55
2023/10/25 02:46:27;;;;;;;0.82;0.82;;;;;;;14.78;70.66;100005.28;5065209;28;20086;-55
2023/10/25 02:48:53;;;;;;;2.42;1.20;;;;;;;14.76;70.80;99996.53;5064303;28;20028;-55
2023/10/25 02:51:19;;;;;;;1.92;1.20;;;;;;;14.77;70.73;99992.84;5058424;28;20033;-54
2023/10/25 02:53:44;;;;;;;1.33;1.10;;;;;;;14.76;71.16;99993.84;5063544;28;20055;-55
2023/10/25 02:56:10;;;;;;;3.15;0.93;;;;;;;14.78;70.94;99996.41;5066397;28;20037;-55
2023/10/25 02:58:35;;;;;;;0.80;0.80;;;;;;;14.76;70.82;100001.06;5062417;28;20032;-55
2023/10/25 03:01:01;;;;;;;1.67;0.80;;;;;;;14.76;71.10;99988.50;5066328;28;20082;-55
2023/10/25 03:03:28;;;;;;;1.17;0.98;;;;;;;14.76;70.73;99985.81;5064723;28;20032;-55
2023/10/25 03:05:53;;;;;;;2.47;1.10;;;;;;;14.75;70.76;99973.41;5062141;28;20028;-55
2023/10/25 03:08:19;;;;;;;1.10;1.00;;;;;;;14.75;70.97;99976.09;5062394;28;20037;-54
2023/10/25 03:10:44;;;;;;;0.73;0.73;;;;;;;14.75;70.89;99980.59;5062450;28;20029;-56
2023/10/25 03:13:09;;;;;;;1.30;0.90;;;;;;;14.75;70.74;99970.72;5062797;28;20448;-54
2023/10/25 03:15:35;;;;;;;2.08;1.00;;;;;;;14.75;71.00;99965.34;5062695;28;20036;-55
2023/10/25 03:18:01;;;;;;;1.30;0.90;;;;;;;14.75;70.81;99965.34;5062365;28;20071;-56
2023/10/25 03:20:27;;;;;;;1.48;1.10;;;;;;;14.76;70.87;99950.16;5064037;28;20041;-55
2023/10/25 03:22:52;;;;;;;2.28;1.30;;;;;;;14.74;70.89;99958.31;5069257;28;20078;-55
2023/10/25 03:25:18;;;;;;;0.90;0.80;;;;;;;14.73;70.89;99953.94;5069313;28;20067;-55
2023/10/25 03:27:43;;;;;;;2.20;1.00;;;;;;;14.74;71.16;99958.31;5066669;28;20501;-55
2023/10/25 03:30:09;;;;;;;3.17;1.10;;;;;;;14.74;70.78;99955.66;5066186;28;20060;-55
2023/10/25 03:32:34;;;;;;;1.10;1.00;;;;;;;14.74;71.07;99954.81;5066615;28;20029;-54
2023/10/25 03:35:00;;;;;;;0.70;0.70;;;;;;;14.74;71.04;99950.28;5065836;28;20490;-55
2023/10/25 03:37:25;;;;;;;0.70;0.70;;;;;;;14.73;71.12;99951.25;5066879;28;20387;-54
2023/10/25 03:39:50;;;;;;;1.40;1.10;;;;;;;14.73;70.69;99948.59;5067305;28;20063;-55
2023/10/25 03:42:16;;;;;;;1.25;0.90;;;;;;;14.74;70.83;99949.47;5065420;28;20077;-55
2023/10/25 03:44:42;;;;;;;1.40;1.00;;;;;;;14.72;71.08;99949.59;5067011;28;20078;-55
2023/10/25 03:47:07;;;;;;;2.10;1.30;;;;;;;14.72;70.79;99946.91;5067273;28;20495;-55
2023/10/25 03:49:32;;;;;;;1.10;1.00;;;;;;;14.73;70.57;99939.72;5066023;28;20035;-55
2023/10/25 03:51:58;;;;;;;0.82;0.82;;;;;;;14.73;70.86;99935.19;5067192;28;20025;-55
2023/10/25 03:54:23;;;;;;;0.85;0.85;;;;;;;14.72;71.04;99928.16;5068264;28;20043;-54
2023/10/25 03:56:48;;;;;;;1.92;1.13;;;;;;;14.71;70.81;99926.47;5065705;28;20471;-54
2023/10/25 03:59:15;;;;;;;1.30;0.93;;;;;;;14.73;70.72;99927.16;5065097;28;20028;-55
2023/10/25 04:01:40;;;;;;;0.82;0.82;;;;;;;14.71;70.74;99929.13;5068786;28;20387;-55
2023/10/25 04:04:06;;;;;;;2.00;0.88;;;;;;;14.71;70.74;99922.94;5065270;28;20127;-55
2023/10/25 04:06:32;;;;;;;1.52;0.95;;;;;;;14.70;70.76;99926.59;5065547;28;20060;-55
2023/10/25 04:08:57;;;;;;;1.13;1.02;;;;;;;14.70;71.00;99924.78;5065465;28;20032;-55
2023/10/25 04:11:23;;;;;;;0.90;0.90;;;;;;;14.70;71.01;99924.78;5065343;28;20386;-54
2023/10/25 04:13:48;;;;;;;1.00;0.90;;;;;;;14.70;70.73;99924.78;5065163;28;20071;-55
2023/10/25 04:16:13;;;;;;;1.17;0.90;;;;;;;14.70;70.78;99915.88;5065042;28;20029;-55
2023/10/25 04:18:39;;;;;;;1.27;0.93;;;;;;;14.69;70.88;99920.41;5064245;28;20028;-54
2023/10/25 04:21:09;;;;;;;1.42;0.80;;;;;;;14.69;70.84;99920.41;5064144;28;20044;-55
2023/10/25 04:23:35;;;;;;;2.13;0.83;;;;;;;14.69;70.89;99917.72;5063080;28;20537;-55
2023/10/25 04:26:10;;;;;;;1.13;0.73;;;;;;;14.70;70.92;99918.56;5068517;28;20029;-55
2023/10/25 04:28:37;;;;;;;1.00;0.90;;;;;;;14.69;70.93;99917.72;5066295;28;20028;-54
2023/10/25 04:31:02;;;;;;;1.77;1.00;;;;;;;14.69;70.66;99915.03;5062206;28;20029;-55
2023/10/25 04:33:28;;;;;;;2.75;1.00;;;;;;;14.69;70.78;99912.38;5065322;28;20036;-56
2023/10/25 04:35:55;;;;;;;1.38;0.90;;;;;;;14.70;70.82;99908.72;5065730;28;20094;-55
2023/10/25 04:38:21;;;;;;;0.95;0.75;;;;;;;14.69;70.77;99911.53;5065377;28;20390;-55
2023/10/25 04:40:46;;;;;;;1.20;0.90;;;;;;;14.68;70.74;99905.34;5066045;28;20072;-55
2023/10/25 04:43:11;;;;;;;0.70;0.70;;;;;;;14.69;70.86;99906.16;5063448;28;20107;-55
2023/10/25 04:45:37;;;;;;;0.95;0.90;;;;;;;14.68;70.61;99907.16;5062191;28;20117;-55
2023/10/25 04:48:03;;;;;;;0.98;0.88;;;;;;;14.67;70.78;99900.97;5062546;28;20034;-55
2023/10/25 04:50:34;;;;;;;2.97;0.88;;;;;;;14.68;70.66;99893.75;5064092;28;20033;-55
2023/10/25 04:53:01;;;;;;;1.55;0.82;;;;;;;14.67;70.40;99892.91;5063262;28;20104;-54
2023/10/25 04:55:29;;;;;;;1.17;1.08;;;;;;;14.67;70.88;99890.25;5064277;28;20040;-55
2023/10/25 04:57:55;;;;;;;1.38;0.93;;;;;;;14.67;70.70;99884.88;5068174;28;20028;-55
2023/10/25 05:00:20;;;;;;;1.35;0.90;;;;;;;14.68;70.67;99891.06;5064578;28;20089;-55
2023/10/25 05:02:45;;;;;;;1.40;0.98;;;;;;;14.66;70.79;99881.38;5064852;28;20032;-55
2023/10/25 05:05:11;;;;;;;0.93;0.82;;;;;;;14.68;70.71;99875.00;5064174;28;20055;-55
2023/10/25 05:07:37;;;;;;;2.38;1.13;;;;;;;14.67;70.82;99874.16;5067432;28;20055;-55
2023/10/25 05:10:04;;;;;;;2.17;1.10;;;;;;;14.66;70.63;99864.47;5064081;28;20034;-54
2023/10/25 05:12:38;;;;;;;0.73;0.73;;;;;;;14.66;70.86;99864.47;5063644;28;20474;-55
2023/10/25 05:15:05;;;;;;;1.17;1.08;;;;;;;14.67;70.87;99860.78;5063282;28;20082;-55
2023/10/25 05:17:30;;;;;;;1.95;1.00;;;;;;;14.67;70.58;99855.41;5063367;28;20501;-55
2023/10/25 05:19:56;;;;;;;1.70;1.00;;;;;;;14.66;70.63;99854.56;5063556;28;20033;-55
2023/10/25 05:22:27;;;;;;;1.83;0.90;;;;;;;14.65;70.69;99841.31;5068127;28;20447;-55
2023/10/25 05:24:54;;;;;;;1.48;0.80;;;;;;;14.65;70.64;99834.13;5065823;28;20067;-55
2023/10/25 05:27:20;;;;;;;1.38;0.90;;;;;;;14.65;70.63;99830.59;5066114;28;20039;-54
2023/10/25 05:29:46;;;;;;;1.20;0.90;;;;;;;14.65;70.88;99839.47;5063551;28;20033;-55
2023/10/25 05:32:14;;;;;;;1.13;0.80;;;;;;;14.65;70.71;99836.78;5063051;28;20123;-54
2023/10/25 05:34:40;;;;;;;0.93;0.93;;;;;;;14.66;70.48;99837.66;5062957;28;20379;-55
2023/10/25 05:37:06;;;;;;;0.88;0.80;;;;;;;14.64;70.77;99826.22;5062984;28;20029;-55
2023/10/25 05:39:32;;;;;;;1.83;0.93;;;;;;;14.64;70.85;99828.91;5062304;28;20120;-54
2023/10/25 05:42:04;;;;;;;1.05;0.95;;;;;;;14.65;70.70;99827.94;5065225;28;20177;-55
2023/10/25 05:44:30;;;;;;;1.25;0.90;;;;;;;14.63;70.72;99822.72;5062311;28;20111;-55
2023/10/25 05:46:56;;;;;;;0.95;0.93;;;;;;;14.64;70.53;99818.19;5062372;28;20246;-55
2023/10/25 05:49:21;;;;;;;1.25;0.90;;;;;;;14.63;70.37;99822.72;5064176;28;20139;-54
2023/10/25 05:51:47;;;;;;;2.25;1.17;;;;;;;14.64;70.74;99812.84;5064519;28;20524;-55
2023/10/25 05:54:13;;;;;;;1.45;0.90;;;;;;;14.63;70.54;99811.16;5067163;28;20368;-55
2023/10/25 05:56:39;;;;;;;1.40;0.93;;;;;;;14.64;70.67;99807.47;5064042;28;20064;-54
2023/10/25 05:59:04;;;;;;;0.95;0.95;;;;;;;14.63;70.77;99805.81;5065400;28;20495;-55
2023/10/25 06:01:44;;;;;;;0.98;0.98;;;;;;;14.63;70.79;99808.47;5062453;28;20486;-55
2023/10/25 06:04:11;;;;;;;1.48;0.90;;;;;;;14.63;70.70;99811.16;5062234;28;20083;-54
2023/10/25 06:06:40;;;;;;;0.70;0.70;;;;;;;14.63;70.58;99803.97;5063233;28;20047;-55
2023/10/25 06:09:06;;;;;;;0.70;0.70;;;;;;;14.63;70.72;99803.13;5063163;28;20479;-54
2023/10/25 06:11:32;;;;;;;1.00;0.88;;;;;;;14.63;70.64;99801.28;5062566;28;20043;-55
2023/10/25 06:13:58;;;;;;;1.35;0.90;;;;;;;14.64;70.33;99802.13;5059353;28;20035;-55
2023/10/25 06:16:23;;;;;;;1.58;0.80;;;;;;;14.62;70.59;99799.59;5068747;28;20134;-55
2023/10/25 06:18:49;;;;;;;2.28;0.98;;;;;;;14.63;70.67;99800.44;5069733;28;20025;-55
2023/10/25 06:21:14;;;;;;;1.70;0.90;;;;;;;14.62;70.74;99799.59;5069032;28;20031;-54
2023/10/25 06:23:39;;;;;;;4.72;1.00;;;;;;;14.63;70.67;99792.41;5069441;28;20474;-55
2023/10/25 06:26:05;;;;;;;1.48;0.88;;;;;;;14.62;70.95;99790.72;5070232;28;20093;-54
2023/10/25 06:28:33;;;;;;;2.28;1.02;;;;;;;14.61;70.95;99789.03;5066989;28;20035;-55
2023/10/25 06:30:58;;;;;;;0.85;0.85;;;;;;;14.62;70.54;99785.34;5063461;28;20032;-55
2023/10/25 06:33:25;;;;;;;0.93;0.80;;;;;;;14.62;70.97;99782.66;5041867;28;20021;-55
2023/10/25 06:35:50;;;;;;;0.93;0.90;;;;;;;14.60;70.82;99780.16;5023907;28;20088;-54
2023/10/25 06:38:16;;;;;;;0.82;0.73;;;;;;;14.62;70.79;99774.63;5028216;28;20563;-55
2023/10/25 06:40:42;;;;;;;1.88;0.90;;;;;;;14.62;70.81;99771.94;5028534;28;20037;-55
2023/10/25 06:43:07;;;;;;;2.72;1.00;;;;;;;14.61;70.52;99764.94;5023474;28;20529;-55
2023/10/25 06:45:33;;;;;;;1.02;0.90;;;;;;;14.61;70.75;99760.41;5026158;28;20080;-55
2023/10/25 06:48:00;;;;;;;1.02;0.80;;;;;;;14.61;70.97;99759.56;5026705;28;20430;-55
2023/10/25 06:50:26;;;;;;;6.55;1.13;;;;;;;14.61;70.70;99754.22;5027883;28;20044;-55
2023/10/25 06:52:52;;;;;;;1.33;0.70;;;;;;;14.61;70.63;99754.22;5021622;28;20369;-54
2023/10/25 06:55:18;;;;;;;0.70;0.63;;;;;;;14.61;70.62;99752.38;5023877;28;20044;-55
2023/10/25 06:57:44;;;;;;;3.47;1.10;;;;;;;14.61;70.70;99746.19;5027385;28;20029;-54
2023/10/25 07:00:10;;;;;;;1.33;0.95;;;;;;;14.60;70.66;99737.31;5032013;28;20387;-55
2023/10/25 07:03:09;;;;;;;1.20;0.70;;;;;;;14.63;70.55;99722.75;5028533;28;20029;-55
2023/10/25 07:05:35;;;;;;;1.88;0.90;;;;;;;14.60;70.85;99725.72;5019130;28;20041;-55
2023/10/25 07:08:01;;;;;;;1.45;0.95;;;;;;;14.60;70.80;99721.22;5027823;28;20375;-55
2023/10/25 07:10:27;;;;;;;0.82;0.80;;;;;;;14.60;70.98;99709.66;5024373;28;20034;-55
2023/10/25 07:12:52;;;;;;;1.13;0.90;;;;;;;14.60;70.50;99715.00;5027669;28;20515;-55
2023/10/25 07:15:18;;;;;;;1.75;0.80;;;;;;;14.60;70.49;99710.50;5028528;28;20041;-54
2023/10/25 07:17:49;;;;;;;1.33;0.75;;;;;;;14.60;70.54;99709.66;5027016;28;20120;-54
2023/10/25 07:20:15;;;;;;;1.30;0.90;;;;;;;14.59;70.43;99702.63;5028292;28;20176;-54
2023/10/25 07:22:40;;;;;;;2.28;0.93;;;;;;;14.60;70.70;99696.25;5029750;28;20121;-55
2023/10/25 07:25:06;;;;;;;2.15;1.00;;;;;;;14.59;70.87;99692.75;5028123;28;20037;-54
2023/10/25 07:27:32;;;;;;;1.02;0.80;;;;;;;14.59;71.04;99692.75;5030491;28;20163;-54
2023/10/25 07:29:57;;;;;;;1.00;0.90;;;;;;;14.59;70.62;99691.91;5029888;28;20404;-54
2023/10/25 07:32:23;;;;;;;1.33;0.80;;;;;;;14.59;70.63;99698.09;5028798;28;20040;-54
2023/10/25 07:34:48;;;;;;;1.08;0.80;;;;;;;14.59;70.88;99700.78;5029581;28;20041;-54
2023/10/25 07:37:15;;;;;;;0.80;0.80;;;;;;;14.59;70.75;99700.78;5025309;28;20125;-55
2023/10/25 07:39:40;;;;;;;0.90;0.80;;;;;;;14.59;71.05;99699.94;5027770;28;20045;-54
2023/10/25 07:42:07;;;;;;;1.33;0.70;;;;;;;14.59;71.08;99691.91;5019232;28;20042;-55
2023/10/25 07:44:32;;;;;;;2.90;0.80;;;;;;;14.62;71.30;99695.13;5028995;28;20044;-61
2023/10/25 07:46:57;;;;;;;4.03;1.00;;;;;;;14.68;71.31;99682.97;5023601;28;20029;-57
2023/10/25 07:49:23;;;;;;;0.82;0.77;;;;;;;14.75;70.85;99675.97;5026320;28;20068;-58
2023/10/25 07:51:48;;;;;;;1.08;0.98;;;;;;;14.83;70.97;99678.75;5028347;28;20129;-63
2023/10/25 07:54:13;;;;;;;1.67;0.85;;;;;;;14.92;71.16;99674.28;5024643;28;20048;-55
2023/10/25 07:56:39;;;;;;;5.07;0.90;;;;;;;15.00;71.58;99673.50;5021760;28;20037;-58
2023/10/25 07:59:04;;;;;;;2.95;0.90;;;;;;;15.07;70.72;99677.25;5027382;28;20025;-59
2023/10/25 08:01:30;;;;;;;1.27;0.80;;;;;;;15.12;70.54;99661.53;5023883;28;20068;-59
2023/10/25 08:03:55;;;;;;;6.30;1.40;;;;;;;15.15;70.10;99655.84;5025996;28;20037;-59
2023/10/25 08:06:20;;;;;;;3.47;1.45;;;;;;;15.19;69.62;99649.19;5026786;28;20044;-56
2023/10/25 08:08:48;;;;;;;2.95;1.27;;;;;;;15.23;69.69;99642.53;5021959;28;20079;-57
2023/10/25 08:11:14;;;;;;;7.07;1.60;;;;;;;15.26;69.49;99636.00;5022954;28;20104;-57
2023/10/25 08:13:42;;;;;;;3.85;1.48;;;;;;;15.29;69.33;99634.81;5026357;28;20112;-56
2023/10/25 08:16:08;;;;;;;7.20;1.20;;;;;;;15.33;69.26;99638.91;5024814;28;20049;-57
2023/10/25 08:18:34;;;;;;;3.72;1.92;;;;;;;15.35;69.08;99631.53;5024526;28;20466;-57
2023/10/25 08:20:59;;;;;;;6.40;1.35;;;;;;;15.38;68.93;99623.16;5022822;28;20032;-57
2023/10/25 08:23:25;;;;;;;2.13;1.17;;;;;;;15.40;68.82;99624.69;5022477;28;20033;-57
2023/10/25 08:25:51;;;;;;;1.38;1.23;;;;;;;15.43;68.52;99626.19;5026737;28;20105;-57
2023/10/25 08:28:19;;;;;;;5.43;1.45;;;;;;;15.45;68.70;99618.84;5025165;28;20037;-57
2023/10/25 08:30:45;;;;;;;1.48;1.27;;;;;;;15.46;68.56;99612.47;5022423;28;20072;-58
2023/10/25 08:33:11;;;;;;;4.75;1.35;;;;;;;15.50;68.45;99612.97;5022317;28;20076;-60
2023/10/25 08:35:40;;;;;;;3.22;1.40;;;;;;;15.51;68.53;99620.88;5018965;28;20029;-64
2023/10/25 08:38:05;;;;;;;4.53;1.33;;;;;;;15.50;68.25;99610.28;5029204;28;20480;-64
2023/10/25 08:40:33;;;;;;;5.35;1.45;;;;;;;15.49;68.26;99608.63;5021444;28;20053;-64
2023/10/25 08:42:59;;;;;;;3.15;1.50;;;;;;;15.46;67.74;99601.75;5021261;28;20519;-64
2023/10/25 08:45:25;;;;;;;2.78;1.30;;;;;;;15.44;68.29;99601.91;5034842;28;20026;-65
2023/10/25 08:47:52;;;;;;;6.25;1.38;;;;;;;15.43;68.17;99596.69;5034173;28;20087;-64
2023/10/25 08:50:20;;;;;;;3.25;1.33;;;;;;;15.42;68.07;99582.44;5018196;28;20434;-64
2023/10/25 08:52:48;;;;;;;3.47;1.20;;;;;;;15.40;68.09;99587.13;5029936;28;20057;-64
2023/10/25 08:55:15;;;;;;;6.07;1.70;;;;;;;15.41;68.02;99579.94;5029809;28;20067;-63
2023/10/25 08:57:40;;;;;;;1.80;0.88;;;;;;;15.39;68.26;99572.03;5024906;28;20030;-64
2023/10/25 09:00:10;;;;;;;4.43;1.55;;;;;;;15.38;68.41;99577.56;5025799;28;20034;-64
2023/10/25 09:02:37;;;;;;;3.30;1.40;;;;;;;15.38;68.01;99574.88;5019591;28;20051;-64
2023/10/25 09:05:03;;;;;;;6.40;1.08;;;;;;;15.36;68.18;99568.81;5022463;28;20033;-64
2023/10/25 09:07:36;;;;;;;3.15;1.50;;;;;;;15.35;68.10;99564.47;5023061;28;20167;-63
2023/10/25 09:10:13;;;;;;;4.47;1.50;;;;;;;15.36;68.27;99566.16;5024535;28;20396;-64
2023/10/25 09:12:38;;;;;;;1.65;0.98;;;;;;;15.34;68.16;99562.78;5019233;28;20116;-64
2023/10/25 09:15:04;;;;;;;4.70;1.35;;;;;;;15.33;68.01;99555.75;5021296;28;20091;-64
2023/10/25 09:17:34;;;;;;;1.80;1.10;;;;;;;15.31;68.20;99545.19;5018703;28;20033;-64
2023/10/25 09:19:59;;;;;;;4.47;1.75;;;;;;;15.31;68.38;99553.22;5019159;28;20033;-64
2023/10/25 09:22:27;;;;;;;3.50;1.42;;;;;;;15.29;67.93;99544.50;5021097;28;20158;-64
2023/10/25 09:24:58;;;;;;;5.00;1.25;;;;;;;15.29;68.44;99538.28;5020299;28;20112;-64
2023/10/25 09:27:23;;;;;;;1.85;1.08;;;;;;;15.28;68.08;99531.25;5019467;28;20479;-64
2023/10/25 09:29:50;;;;;;;2.17;1.20;;;;;;;15.27;67.99;99530.41;5030168;28;20112;-63
2023/10/25 09:32:17;;;;;;;2.95;1.30;;;;;;;15.25;67.95;99533.25;5021513;28;20041;-63
2023/10/25 09:34:43;;;;;;;1.63;1.00;;;;;;;15.24;68.09;99542.28;5023253;28;20036;-62
2023/10/25 09:37:08;;;;;;;2.35;1.30;;;;;;;15.23;67.96;99546.00;5023047;28;20029;-62
2023/10/25 09:39:37;;;;;;;1.38;0.93;;;;;;;15.22;68.25;99538.94;5023626;28;20030;-63
2023/10/25 09:42:09;;;;;;;3.30;1.15;;;;;;;15.21;68.33;99548.00;5026886;28;20119;-62
2023/10/25 09:44:40;;;;;;;4.20;1.25;;;;;;;15.21;68.06;99533.72;5027712;28;20087;-63
2023/10/25 09:47:11;;;;;;;1.88;0.90;;;;;;;15.20;67.94;99527.53;5023599;28;20464;-62
2023/10/25 09:49:43;;;;;;;3.75;1.10;;;;;;;15.20;68.05;99513.28;5026378;28;20167;-63
2023/10/25 09:52:19;;;;;;;2.15;1.20;;;;;;;15.19;67.93;99500.88;5026706;28;20054;-63
2023/10/25 09:54:49;;;;;;;1.98;1.30;;;;;;;15.16;68.18;99494.00;5023741;28;20040;-62
2023/10/25 09:57:16;;;;;;;1.15;1.00;;;;;;;15.17;68.41;99494.84;5026463;28;20452;-63
2023/10/25 09:59:43;;;;;;;2.70;1.67;;;;;;;15.15;68.25;99492.31;5029819;28;20028;-62
2023/10/25 10:02:10;;;;;;;5.10;1.38;;;;;;;15.15;68.28;99486.94;5026210;28;20037;-62
2023/10/25 10:04:42;;;;;;;3.65;2.00;;;;;;;15.14;68.32;99487.97;5023052;28;20018;-62
2023/10/25 10:07:49;;;;;;;5.63;2.38;;;;;;;15.17;68.76;99492.16;5024363;28;20036;-62
2023/10/25 10:10:27;;;;;;;8.38;2.95;;;;;;;15.14;68.57;99482.59;5028542;28;20116;-62
2023/10/25 10:12:52;;;;;;;8.90;3.92;;;;;;;15.12;68.31;99468.53;5026749;28;20037;-62
2023/10/25 10:15:19;;;;;;;8.60;4.07;;;;;;;15.12;68.52;99473.06;5024901;28;20459;-62
2023/10/25 10:17:45;;;;;;;8.65;4.45;;;;;;;15.11;68.56;99460.63;5030177;28;20127;-62
2023/10/25 10:20:28;;;;;;;10.73;5.20;;;;;;;15.13;68.69;99461.31;5029747;28;20076;-62
2023/10/25 10:23:05;;;;;;;10.48;4.78;;;;;;;15.11;68.85;99445.38;5030899;28;20045;-62
2023/10/25 10:25:46;;;;;;;16.25;4.97;;;;;;;15.11;68.53;99445.38;5028629;28;20025;-62
2023/10/25 10:28:13;;;;;;;9.05;5.15;;;;;;;15.09;68.97;99435.84;5029735;28;20032;-62
2023/10/25 10:30:40;;;;;;;10.73;5.20;;;;;;;15.08;69.02;99428.78;5029775;28;20541;-62
2023/10/25 10:33:10;;;;;;;12.52;5.65;;;;;;;15.08;69.15;99424.28;5023409;28;20030;-62
2023/10/25 10:35:44;;;;;;;10.48;5.20;;;;;;;15.07;68.85;99427.94;5023148;28;20037;-62
2023/10/25 10:38:10;;;;;;;12.00;5.50;;;;;;;15.07;69.02;99411.84;5022543;28;20025;-62
2023/10/25 10:40:37;;;;;;;14.63;6.18;;;;;;;15.06;69.07;99410.19;5000085;28;20058;-62
2023/10/25 10:43:06;;;;;;;12.75;6.05;;;;;;;15.06;69.20;99407.50;5007318;28;20037;-62
2023/10/25 10:45:32;;;;;;;19.50;6.05;;;;;;;15.05;69.13;99397.78;5002444;28;20428;-62
2023/10/25 10:48:12;;;;;;;11.18;5.32;;;;;;;15.07;69.17;99400.31;5007112;28;20065;-62
2023/10/25 10:50:39;;;;;;;8.80;4.88;;;;;;;15.04;69.33;99390.72;4999051;28;20029;-62
2023/10/25 10:53:05;;;;;;;13.30;5.55;;;;;;;15.03;69.41;99387.22;5010495;28;20030;-62
2023/10/25 10:55:30;;;;;;;13.52;6.05;;;;;;;15.04;69.49;99380.00;5003093;28;20509;-62
2023/10/25 10:57:56;;;;;;;13.10;5.85;;;;;;;15.02;69.50;99377.50;5005879;28;20428;-62
2023/10/25 11:00:22;;;;;;;13.68;5.70;;;;;;;15.01;69.54;99365.09;4999097;28;20030;-62
2023/10/25 11:02:49;;;;;;;13.48;5.88;;;;;;;15.02;69.46;99371.28;5003225;28;20037;-62
2023/10/25 11:05:15;;;;;;;11.93;5.35;;;;;;;15.02;69.26;99360.56;5005398;28;20026;-62
2023/10/25 11:07:42;;;;;;;11.73;6.18;;;;;;;15.00;69.66;99363.44;4998734;28;20042;-62
2023/10/25 11:10:10;;;;;;;8.43;5.05;;;;;;;15.00;69.47;99352.72;5007109;28;20121;-62
2023/10/25 11:12:36;;;;;;;11.75;5.10;;;;;;;15.00;69.68;99350.03;5002272;28;20117;-62
2023/10/25 11:15:03;;;;;;;10.50;5.40;;;;;;;15.00;69.60;99341.13;5006099;28;20035;-62
2023/10/25 11:17:32;;;;;;;13.68;5.25;;;;;;;14.99;69.53;99339.47;4996321;28;20031;-62
2023/10/25 11:19:59;;;;;;;8.32;4.53;;;;;;;15.00;69.63;99330.41;5006940;28;20037;-62
2023/10/25 11:22:25;;;;;;;9.73;4.97;;;;;;;14.99;69.63;99328.75;5003518;28;20057;-62
2023/10/25 11:24:51;;;;;;;9.60;4.88;;;;;;;14.99;69.48;99326.06;5004862;28;20077;-62
2023/10/25 11:27:16;;;;;;;9.85;4.78;;;;;;;14.97;69.64;99323.56;5007356;28;20046;-62
2023/10/25 11:29:42;;;;;;;9.18;4.63;;;;;;;14.97;69.55;99320.03;5002877;28;20477;-62